Airfield :
LOGIN :

Register | Disclaimer

   EN    FR    IT 

 










Legend :    VFR   Marginal VFR   IFR   Intensive IFR   Very Intensive IFR
Visi :
Ceiling :
>= 8 km
>= 3000ft
5 to 8 km
1000 to 3000 ft
1500m to 5 km
500 to 1000 ft
800 to 1500m
200 to 500 ft
< 800m
< 200 ft
Symbols :   Thunderstorms  Fog  Heavy snow  Heavy precipitations  Wind > 20 kt
SIGMETs :     Misc.  Thunderstorms  Icing  Turbulence  Mountain Waves  Volcanic Ashes







- Airport Elevation : 1234 ft
- IATA code : LUX


ELLX - Luxembourg Findel

CURRENT METAR :
  • 141820Z 20011KT 9999 FEW006 BKN011 03/02 Q0993 NOSIG

EXPIRED METARs :
  • 141750Z 19009KT 170V230 9999 -SHRA BKN009 03/02 Q0993 NOSIG
  • 141720Z 20009KT 9999 -RA BKN009 03/02 Q0994 NOSIG
  • 141650Z 20008KT 9999 BKN012 03/02 Q0994 NOSIG
  • 141620Z 21009KT 9999 FEW010 BKN013 03/02 Q0994 NOSIG
  • 141550Z 22011KT 200V260 9999 FEW013 BKN017 03/02 Q0995 NOSIG

TAF TAF ELLX
Valid from the 14 at 18:00 until the 16 at 00:00 UTC


141700Z 1418/1524 23012KT 9999 BKN015
TEMPO 1418/1515 25015G25KT 5000 SHRAGS SHRASN SCT006 BKN012TCU
ATIS : +352 4798 27300
Met : +352 4798 27010 / 27050
No reported NOTAMs for that airfield.



MET'MAP, your aeronautical weather chart ! - Copyright ORBIFLY December 2007 - Disclaimer

ORBIFLY MET'MAP TEAM :

Programming & Development : Alexandra Zaïnal
Concept & Development : Baudouin d'Aumeries
Co-Development & Prog : Marc-Olivier Méhu
Technical & hardware support : Manuel Goepfert

Contact : metmap@orbifly.com




SOURCES & CREDITS :

   NOAA